Time;durP1;ratioP1;P1;durP2;ratioP2;P2;SDS_P1;SDS_P2;PMS_P1;PMS_P2;Temp;Humidity;BMP_temperature;BMP_pressure;BME280_temperature;BME280_humidity;BME280_pressure;Samples;Min_cycle;Max_cycle;Signal;HPM_P1;HPM_P2
2022/12/08 00:01:14;;;;;;;0.30;0.30;;;26.80;25.20;;;;;;4931327;29;20192;-69
2022/12/08 00:03:42;;;;;;;1.23;0.30;;;26.70;22.50;;;;;;4935432;29;20228;-69
2022/12/08 00:09:22;;;;;;;2.93;0.60;;;26.10;23.50;;;;;;4918258;29;20670;-71
2022/12/08 00:12:00;;;;;;;0.67;0.60;;;26.30;22.90;;;;;;4934947;29;20235;-70
2022/12/08 00:14:36;;;;;;;1.60;0.27;;;26.70;20.30;;;;;;4933938;29;20224;-70
2022/12/08 00:17:05;;;;;;;1.20;0.40;;;27.30;21.80;;;;;;4935046;29;20587;-69
2022/12/08 00:19:33;;;;;;;1.63;0.37;;;27.80;23.60;;;;;;4935889;29;20220;-70
2022/12/08 00:22:01;;;;;;;0.60;0.37;;;27.70;22.80;;;;;;4931301;29;20184;-71
2022/12/08 00:24:34;;;;;;;1.93;0.30;;;27.40;19.60;;;;;;4934212;29;20196;-70
2022/12/08 00:27:02;;;;;;;0.40;0.30;;;26.80;19.50;;;;;;4933494;29;20223;-70
2022/12/08 00:29:30;;;;;;;2.37;0.40;;;26.50;21.00;;;;;;4933591;29;20191;-69
2022/12/08 00:31:57;;;;;;;2.70;0.30;;;26.70;21.20;;;;;;4941109;29;20244;-71
2022/12/08 00:34:25;;;;;;;1.60;0.43;;;27.10;17.40;;;;;;4953620;29;20230;-70
2022/12/08 00:36:52;;;;;;;1.63;0.30;;;27.70;17.70;;;;;;4939742;29;20188;-71
2022/12/08 00:39:19;;;;;;;0.67;0.40;;;27.80;15.70;;;;;;4934637;29;20655;-71
2022/12/08 00:44:32;;;;;;;0.87;0.30;;;27.00;19.00;;;;;;4934364;29;20243;-71
2022/12/08 00:47:00;;;;;;;2.33;0.40;;;27.60;18.40;;;;;;4934380;29;20188;-71
2022/12/08 00:49:27;;;;;;;0.37;0.30;;;27.80;15.30;;;;;;4950619;29;20254;-71
2022/12/08 00:51:55;;;;;;;2.57;0.50;;;28.10;17.90;;;;;;4953061;29;20191;-72
2022/12/08 00:54:23;;;;;;;0.60;0.30;;;28.50;14.40;;;;;;4953422;29;20306;-70
2022/12/08 00:56:50;;;;;;;0.70;0.20;;;28.20;16.00;;;;;;4953430;29;20180;-72
2022/12/08 00:59:18;;;;;;;2.63;0.37;;;28.40;14.10;;;;;;4953021;29;20184;-70
2022/12/08 01:01:46;;;;;;;0.20;0.20;;;28.60;14.90;;;;;;4953606;29;20180;-71
2022/12/08 01:04:16;;;;;;;2.00;0.20;;;28.50;12.40;;;;;;4938673;29;20223;-70
2022/12/08 01:06:45;;;;;;;0.97;0.30;;;28.30;14.30;;;;;;4936524;29;20203;-69
2022/12/08 01:09:14;;;;;;;1.13;0.40;;;27.50;12.20;;;;;;4937858;29;20195;-72
2022/12/08 01:11:43;;;;;;;0.50;0.20;;;27.50;16.00;;;;;;4937537;29;20195;-70
2022/12/08 01:14:11;;;;;;;0.97;0.30;;;28.20;19.50;;;;;;4936002;29;20340;-71
2022/12/08 01:16:40;;;;;;;0.77;0.30;;;28.80;15.90;;;;;;4937319;29;20192;-71
2022/12/08 01:19:08;;;;;;;1.07;0.50;;;28.70;13.80;;;;;;4937545;29;20271;-71
2022/12/08 01:21:36;;;;;;;0.60;0.20;;;28.80;14.80;;;;;;4936705;29;20177;-70
2022/12/08 01:24:03;;;;;;;2.00;0.40;;;28.60;15.10;;;;;;4937265;29;20192;-71
2022/12/08 01:26:31;;;;;;;0.97;0.30;;;28.50;12.20;;;;;;4955614;29;20176;-70
2022/12/08 01:28:58;;;;;;;1.40;0.30;;;27.90;12.10;;;;;;4950679;29;20575;-71
2022/12/08 01:31:26;;;;;;;0.60;0.40;;;27.90;9.40;;;;;;4937188;29;20185;-70
2022/12/08 01:33:53;;;;;;;0.30;0.20;;;27.80;9.40;;;;;;4937180;29;20205;-70
2022/12/08 01:36:24;;;;;;;0.70;0.37;;;27.50;9.90;;;;;;4942034;29;20219;-71
2022/12/08 01:38:53;;;;;;;1.47;0.67;;;27.90;11.10;;;;;;4936439;29;20350;-71
2022/12/08 01:41:23;;;;;;;1.40;0.30;;;27.80;10.60;;;;;;4937177;29;20228;-71
2022/12/08 01:44:00;;;;;;;0.73;0.20;;;28.60;11.30;;;;;;4936229;29;20181;-70
2022/12/08 01:46:29;;;;;;;0.93;0.40;;;28.50;11.20;;;;;;4936719;29;20677;-71
2022/12/08 01:49:09;;;;;;;0.27;0.27;;;28.70;10.80;;;;;;4925673;29;20702;-71
2022/12/08 01:51:42;;;;;;;2.07;0.40;;;29.60;8.90;;;;;;4925866;29;20279;-70
2022/12/08 01:54:11;;;;;;;8.97;1.53;;;29.80;14.30;;;;;;4937138;29;20697;-70
2022/12/08 01:56:52;;;;;;;6.37;1.53;;;29.90;26.50;;;;;;4936639;29;20184;-70
2022/12/08 01:59:19;;;;;;;9.67;1.93;;;29.70;36.50;;;;;;4937157;29;20188;-70
2022/12/08 02:01:47;;;;;;;11.33;1.93;;;29.40;39.50;;;;;;4937214;29;20647;-70
2022/12/08 02:04:14;;;;;;;13.60;2.30;;;28.60;49.90;;;;;;4936026;29;20180;-70
2022/12/08 02:06:44;;;;;;;5.83;1.67;;;27.90;57.00;;;;;;4936895;29;20647;-69
2022/12/08 02:09:11;;;;;;;6.37;1.60;;;27.70;63.30;;;;;;4936812;29;20184;-71
2022/12/08 02:11:39;;;;;;;13.53;2.47;;;27.30;53.30;;;;;;4936584;29;20186;-70
2022/12/08 02:14:09;;;;;;;6.10;1.17;;;27.20;63.80;;;;;;4936801;29;20272;-70
2022/12/08 02:17:05;;;;;;;8.67;1.93;;;26.90;75.30;;;;;;4936246;29;20180;-71
2022/12/08 02:20:07;;;;;;;9.43;2.00;;;26.70;70.50;;;;;;4915599;29;20663;-69
2022/12/08 02:22:40;;;;;;;10.33;2.00;;;26.70;68.80;;;;;;4935645;29;20184;-71
2022/12/08 02:25:35;;;;;;;9.73;1.97;;;26.30;70.00;;;;;;4933485;29;20185;-70
2022/12/08 02:28:57;;;;;;;9.60;2.07;;;26.30;84.50;;;;;;4934738;29;20665;-71
2022/12/08 02:31:42;;;;;;;5.60;1.83;;;26.30;77.80;;;;;;4875205;29;20228;-71
2022/12/08 02:34:15;;;;;;;10.07;1.93;;;26.30;83.40;;;;;;4935472;29;20213;-70
2022/12/08 02:36:59;;;;;;;10.87;2.00;;;25.80;90.20;;;;;;4936028;29;20195;-71
2022/12/08 02:39:32;;;;;;;7.77;2.17;;;25.80;88.80;;;;;;4935988;29;20243;-69
2022/12/08 02:42:30;;;;;;;12.07;2.00;;;25.70;89.00;;;;;;4935545;29;20201;-70
2022/12/08 02:45:01;;;;;;;7.37;2.20;;;25.80;95.70;;;;;;4917450;29;20193;-69
2022/12/08 02:47:31;;;;;;;9.77;2.10;;;26.00;87.20;;;;;;4934745;29;20189;-72
2022/12/08 02:49:59;;;;;;;6.87;2.00;;;25.60;90.00;;;;;;4934885;29;20240;-71
2022/12/08 02:52:26;;;;;;;10.53;2.00;;;25.70;90.10;;;;;;4935641;29;20203;-72
2022/12/08 02:54:58;;;;;;;7.13;2.30;;;25.60;92.80;;;;;;4935831;29;20220;-70
2022/12/08 02:57:40;;;;;;;11.03;1.80;;;25.50;96.00;;;;;;4935548;29;20184;-70
2022/12/08 03:00:21;;;;;;;14.37;2.00;;;25.60;91.90;;;;;;4935444;29;20240;-70
2022/12/08 03:03:08;;;;;;;6.27;1.87;;;25.50;92.10;;;;;;4934721;29;20585;-71
2022/12/08 03:06:00;;;;;;;5.37;1.33;;;25.80;89.70;;;;;;4916512;29;20213;-71
2022/12/08 03:08:37;;;;;;;7.47;2.33;;;26.10;89.20;;;;;;4917115;29;20186;-71
2022/12/08 03:11:30;;;;;;;13.60;1.70;;;25.80;93.60;;;;;;4934089;29;20189;-71
2022/12/08 03:14:01;;;;;;;7.33;2.30;;;26.00;91.70;;;;;;4935080;29;20192;-71
2022/12/08 03:16:31;;;;;;;10.53;1.63;;;25.40;89.40;;;;;;4935198;29;20223;-70
2022/12/08 03:19:21;;;;;;;9.40;1.97;;;25.70;94.80;;;;;;4934243;29;20226;-71
2022/12/08 03:21:53;;;;;;;9.00;1.90;;;25.60;91.50;;;;;;4935120;29;20658;-71
2022/12/08 03:24:22;;;;;;;10.07;2.27;;;25.70;93.30;;;;;;4934415;29;20991;-71
2022/12/08 03:26:58;;;;;;;9.97;1.60;;;25.40;90.10;;;;;;4943346;29;20187;-72
2022/12/08 03:29:25;;;;;;;8.30;1.40;;;25.50;91.60;;;;;;4934467;29;20549;-71
2022/12/08 03:31:57;;;;;;;8.03;1.77;;;25.70;88.10;;;;;;4934240;29;20183;-72
2022/12/08 03:34:28;;;;;;;7.07;1.47;;;25.90;91.20;;;;;;4934739;29;20581;-71
2022/12/08 03:36:56;;;;;;;10.03;1.70;;;25.80;90.50;;;;;;4935330;29;20180;-71
2022/12/08 03:39:23;;;;;;;7.27;1.73;;;25.60;84.80;;;;;;4935132;29;20192;-71
2022/12/08 03:41:51;;;;;;;6.83;1.60;;;25.60;88.50;;;;;;4934897;29;20224;-71
2022/12/08 03:44:18;;;;;;;5.47;1.80;;;25.70;88.70;;;;;;4934892;29;20180;-72
2022/12/08 03:46:45;;;;;;;7.60;1.53;;;25.70;84.00;;;;;;4934508;29;20195;-72
2022/12/08 03:49:13;;;;;;;7.07;1.47;;;25.70;94.00;;;;;;4933518;29;20692;-72
2022/12/08 03:51:40;;;;;;;5.13;1.43;;;25.90;81.20;;;;;;4935127;29;20711;-71
2022/12/08 03:54:08;;;;;;;5.47;1.70;;;25.90;87.20;;;;;;4934161;29;20212;-71
2022/12/08 03:56:37;;;;;;;10.00;1.70;;;25.80;82.10;;;;;;4934188;29;20207;-71
2022/12/08 03:59:07;;;;;;;5.97;2.03;;;25.70;89.00;;;;;;4934914;29;20216;-71
2022/12/08 04:01:34;;;;;;;5.33;1.43;;;25.70;85.50;;;;;;4934980;29;20192;-71
2022/12/08 04:04:02;;;;;;;6.33;1.40;;;25.40;79.30;;;;;;4917395;29;20287;-70
2022/12/08 04:06:30;;;;;;;6.57;1.50;;;25.70;79.70;;;;;;4935267;29;20181;-72
2022/12/08 04:08:57;;;;;;;11.87;2.00;;;25.70;76.50;;;;;;4934238;29;20184;-72
2022/12/08 04:11:25;;;;;;;7.47;1.43;;;25.90;81.40;;;;;;4934074;29;20197;-72
2022/12/08 04:13:52;;;;;;;7.90;1.53;;;25.60;84.20;;;;;;4934627;29;20176;-72
2022/12/08 04:16:22;;;;;;;10.50;1.53;;;25.50;85.40;;;;;;4934731;29;20607;-72
2022/12/08 04:18:50;;;;;;;7.90;1.20;;;25.60;78.30;;;;;;4934218;29;20173;-72
2022/12/08 04:21:18;;;;;;;6.63;1.60;;;25.50;77.50;;;;;;4934866;29;20184;-72
2022/12/08 04:23:45;;;;;;;6.63;1.50;;;25.50;79.70;;;;;;4934678;29;20623;-71
2022/12/08 04:26:13;;;;;;;4.73;1.43;;;25.40;74.40;;;;;;4933668;29;20231;-71
2022/12/08 04:28:41;;;;;;;10.07;1.60;;;25.10;81.40;;;;;;4934598;29;20188;-71
2022/12/08 04:31:08;;;;;;;6.43;1.50;;;25.30;70.20;;;;;;4934097;29;20184;-71
2022/12/08 04:33:36;;;;;;;6.33;1.30;;;25.40;72.30;;;;;;4933965;29;20216;-71
2022/12/08 04:36:05;;;;;;;7.53;1.20;;;25.10;68.80;;;;;;4934207;29;20694;-70
2022/12/08 04:38:33;;;;;;;10.53;1.53;;;25.10;71.60;;;;;;4934006;29;20267;-71
2022/12/08 04:41:01;;;;;;;7.33;1.30;;;25.30;73.00;;;;;;4937095;29;20188;-71
2022/12/08 04:43:28;;;;;;;6.93;1.37;;;25.70;75.00;;;;;;4938016;29;20184;-72
2022/12/08 04:45:56;;;;;;;4.53;1.17;;;25.60;68.90;;;;;;4938773;29;20189;-72
2022/12/08 04:48:23;;;;;;;8.73;1.63;;;25.40;65.50;;;;;;4937519;29;20733;-71
2022/12/08 04:50:51;;;;;;;5.93;1.30;;;25.60;66.00;;;;;;4937973;29;20693;-72
2022/12/08 04:53:18;;;;;;;6.63;1.70;;;25.30;66.20;;;;;;4938067;29;20642;-72
2022/12/08 04:55:48;;;;;;;8.20;1.40;;;25.30;66.10;;;;;;4937689;29;20255;-72
2022/12/08 04:58:17;;;;;;;8.13;1.80;;;25.60;65.30;;;;;;4938076;29;20726;-71
2022/12/08 05:00:46;;;;;;;4.80;1.00;;;25.70;60.00;;;;;;4937947;29;20606;-72
2022/12/08 05:03:14;;;;;;;7.60;1.33;;;25.40;63.70;;;;;;4937209;29;20193;-71
2022/12/08 05:05:42;;;;;;;7.87;1.23;;;25.40;58.40;;;;;;4937537;29;20208;-72
2022/12/08 05:08:10;;;;;;;5.87;1.13;;;25.00;58.00;;;;;;4937681;29;20184;-71
2022/12/08 05:10:39;;;;;;;8.07;1.73;;;24.90;63.50;;;;;;4935715;29;20596;-71
2022/12/08 05:13:06;;;;;;;7.57;1.33;;;24.80;60.40;;;;;;4936448;29;20183;-71
2022/12/08 05:15:34;;;;;;;7.50;1.57;;;24.70;64.40;;;;;;4937478;29;20217;-71
2022/12/08 05:18:01;;;;;;;6.97;1.40;;;24.70;66.20;;;;;;4937077;29;20187;-71
2022/12/08 05:20:28;;;;;;;6.83;1.10;;;24.40;62.50;;;;;;4937389;29;20284;-71
2022/12/08 05:22:56;;;;;;;7.07;1.50;;;24.40;59.70;;;;;;4937375;29;20184;-71
2022/12/08 05:25:23;;;;;;;8.40;1.00;;;24.20;58.80;;;;;;4937272;29;20188;-72
2022/12/08 05:27:54;;;;;;;3.83;1.40;;;24.40;62.30;;;;;;4937173;29;20188;-71
2022/12/08 05:30:21;;;;;;;9.77;1.53;;;24.20;59.20;;;;;;4937101;29;20275;-72
2022/12/08 05:32:49;;;;;;;5.77;1.23;;;24.60;62.50;;;;;;4936906;29;20185;-72
2022/12/08 05:35:16;;;;;;;5.13;1.13;;;24.60;57.80;;;;;;4936964;29;20223;-72
2022/12/08 05:37:44;;;;;;;5.50;1.23;;;24.50;57.80;;;;;;4920715;29;20197;-71
2022/12/08 05:40:11;;;;;;;8.37;1.70;;;24.40;63.40;;;;;;4936584;29;20684;-71
2022/12/08 05:42:39;;;;;;;8.47;1.43;;;24.60;64.40;;;;;;4953100;29;20239;-70
2022/12/08 05:45:06;;;;;;;6.23;1.20;;;25.00;58.70;;;;;;4956534;29;20190;-71
2022/12/08 05:47:34;;;;;;;6.07;1.03;;;25.10;62.00;;;;;;4955815;29;20605;-72
2022/12/08 05:50:01;;;;;;;7.20;1.47;;;25.10;63.60;;;;;;4950767;29;20227;-72
2022/12/08 05:52:29;;;;;;;3.17;1.00;;;25.40;58.80;;;;;;4936255;29;20181;-72
2022/12/08 05:54:56;;;;;;;7.33;1.47;;;25.20;57.30;;;;;;4936355;29;20212;-70
2022/12/08 05:57:23;;;;;;;7.33;1.30;;;25.00;61.10;;;;;;4937034;29;20184;-71
2022/12/08 05:59:51;;;;;;;7.50;1.40;;;24.60;58.70;;;;;;4936705;29;20244;-71
2022/12/08 06:02:18;;;;;;;6.73;1.37;;;24.50;62.30;;;;;;4935329;29;20184;-71
2022/12/08 06:04:45;;;;;;;5.93;1.50;;;24.40;60.40;;;;;;4936020;29;20677;-73
2022/12/08 06:07:13;;;;;;;11.50;1.50;;;24.20;59.30;;;;;;4952942;29;20271;-72
2022/12/08 06:09:40;;;;;;;1.80;1.00;;;24.10;63.30;;;;;;4945633;29;20238;-70
2022/12/08 06:12:10;;;;;;;11.70;2.07;;;24.20;61.90;;;;;;4937288;29;20231;-72
2022/12/08 06:14:41;;;;;;;7.80;1.53;;;24.00;65.00;;;;;;4936040;29;20689;-72
2022/12/08 06:17:08;;;;;;;7.80;1.40;;;24.00;64.20;;;;;;4936154;29;20705;-72
2022/12/08 06:19:35;;;;;;;4.23;0.97;;;24.10;71.10;;;;;;4935423;29;20642;-73
2022/12/08 06:22:03;;;;;;;5.43;1.10;;;24.10;66.90;;;;;;4935342;29;20191;-72
2022/12/08 06:24:30;;;;;;;2.77;1.13;;;24.00;65.40;;;;;;4935766;29;20196;-71
2022/12/08 06:26:57;;;;;;;4.87;0.90;;;24.10;69.00;;;;;;4936264;29;20585;-71
2022/12/08 06:29:25;;;;;;;4.97;1.10;;;24.00;63.60;;;;;;4936490;29;20180;-72
2022/12/08 06:31:52;;;;;;;5.17;1.70;;;23.80;65.40;;;;;;4935886;29;20180;-72
2022/12/08 06:34:19;;;;;;;4.23;1.00;;;23.50;63.90;;;;;;4936375;29;20211;-73
2022/12/08 06:36:47;;;;;;;9.93;1.60;;;23.50;67.70;;;;;;4936283;29;20180;-73
2022/12/08 06:39:14;;;;;;;5.53;0.90;;;23.40;64.50;;;;;;4935609;29;20187;-72
2022/12/08 06:44:27;;;;;;;7.73;1.10;;;23.30;68.50;;;;;;4936272;29;20610;-72
2022/12/08 06:46:54;;;;;;;5.07;1.00;;;23.30;63.90;;;;;;4935707;29;20936;-71
2022/12/08 06:49:21;;;;;;;4.60;0.83;;;23.30;67.30;;;;;;4935329;29;20232;-71
2022/12/08 06:51:49;;;;;;;6.87;1.27;;;23.20;62.00;;;;;;4936507;29;20559;-71
2022/12/08 06:54:16;;;;;;;5.57;1.50;;;23.20;64.40;;;;;;4936588;29;20215;-71
2022/12/08 06:56:43;;;;;;;9.33;1.47;;;23.00;65.50;;;;;;4935449;29;20222;-71
2022/12/08 06:59:11;;;;;;;6.63;1.20;;;22.80;63.60;;;;;;4935831;29;20247;-72
2022/12/08 07:01:38;;;;;;;9.07;1.13;;;22.90;67.20;;;;;;4935233;29;20189;-71
2022/12/08 07:04:05;;;;;;;2.37;0.87;;;22.90;67.20;;;;;;4936039;29;20271;-71
2022/12/08 07:06:33;;;;;;;4.17;1.30;;;22.90;67.70;;;;;;4934414;29;20208;-72
2022/12/08 07:09:04;;;;;;;4.40;1.23;;;22.80;65.90;;;;;;4935389;29;20189;-72
2022/12/08 07:11:31;;;;;;;6.23;1.00;;;22.90;66.20;;;;;;4935352;29;20191;-72
2022/12/08 07:13:58;;;;;;;4.13;1.00;;;23.10;67.10;;;;;;4935666;29;20595;-73
2022/12/08 07:16:26;;;;;;;2.13;0.77;;;23.10;65.80;;;;;;4935364;29;20208;-71
2022/12/08 07:18:53;;;;;;;4.80;0.97;;;23.00;62.90;;;;;;4935058;29;20172;-71
2022/12/08 07:21:21;;;;;;;13.90;1.73;;;22.60;59.50;;;;;;4935256;29;20714;-70
2022/12/08 07:23:50;;;;;;;4.57;1.17;;;22.10;62.70;;;;;;4933369;29;20562;-72
2022/12/08 07:26:17;;;;;;;5.63;1.30;;;21.70;63.70;;;;;;4935423;29;20173;-72
2022/12/08 07:28:44;;;;;;;4.87;0.83;;;21.80;72.50;;;;;;4935245;29;20185;-72
2022/12/08 07:31:21;;;;;;;4.23;1.33;;;22.00;68.60;;;;;;4934895;29;20187;-72
2022/12/08 07:33:49;;;;;;;4.30;1.10;;;21.80;66.10;;;;;;4935097;29;20290;-70
2022/12/08 07:36:16;;;;;;;4.93;1.30;;;22.00;68.10;;;;;;4935170;29;20221;-69
2022/12/08 07:38:44;;;;;;;2.03;1.03;;;21.90;65.30;;;;;;4934586;29;20180;-70
2022/12/08 07:41:19;;;;;;;5.20;1.00;;;21.90;68.20;;;;;;4935072;29;20184;-70
2022/12/08 07:43:46;;;;;;;6.13;1.10;;;21.80;69.40;;;;;;4934883;29;20180;-72
2022/12/08 07:46:15;;;;;;;4.80;1.00;;;21.80;73.70;;;;;;4934128;29;20188;-71
2022/12/08 07:48:43;;;;;;;4.37;1.00;;;21.90;71.80;;;;;;4934737;29;20746;-71
2022/12/08 07:51:12;;;;;;;5.27;1.00;;;21.70;73.80;;;;;;4934767;29;20555;-72
2022/12/08 07:53:45;;;;;;;4.17;1.03;;;21.40;74.70;;;;;;4934084;29;20246;-70
2022/12/08 07:56:13;;;;;;;3.77;1.13;;;21.40;77.00;;;;;;4917528;29;20620;-71
2022/12/08 07:58:41;;;;;;;4.80;1.07;;;21.30;74.70;;;;;;4933418;29;20247;-71
2022/12/08 08:01:36;;;;;;;3.37;0.97;;;21.20;78.30;;;;;;4934415;29;20176;-71
2022/12/08 08:04:05;;;;;;;5.13;1.17;;;21.20;77.90;;;;;;4934713;29;20188;-72
2022/12/08 08:06:35;;;;;;;5.77;1.50;;;21.30;75.50;;;;;;4934490;29;20180;-69
2022/12/08 08:09:03;;;;;;;4.13;1.10;;;21.30;73.20;;;;;;4934366;29;20187;-70
2022/12/08 08:11:30;;;;;;;5.07;1.40;;;21.10;72.50;;;;;;4934548;29;20644;-72
2022/12/08 08:13:58;;;;;;;4.23;1.07;;;21.00;70.10;;;;;;4934113;29;20651;-70
2022/12/08 08:16:25;;;;;;;5.93;1.10;;;20.90;70.30;;;;;;4936068;29;20187;-70
2022/12/08 08:18:53;;;;;;;5.00;1.50;;;20.80;73.40;;;;;;4937090;29;20187;-71
2022/12/08 08:21:21;;;;;;;7.17;1.30;;;20.80;73.00;;;;;;4935010;29;20189;-71
2022/12/08 08:23:48;;;;;;;2.53;0.90;;;20.60;72.40;;;;;;4934673;29;20184;-71
2022/12/08 08:26:16;;;;;;;10.70;1.10;;;20.40;76.40;;;;;;4934594;29;20232;-71
2022/12/08 08:28:44;;;;;;;9.87;1.27;;;20.30;74.00;;;;;;4936262;29;20186;-70
2022/12/08 08:31:17;;;;;;;2.47;1.00;;;20.20;74.50;;;;;;4934433;29;20187;-72
2022/12/08 08:33:47;;;;;;;6.93;1.30;;;20.10;78.10;;;;;;4938959;29;20192;-71
2022/12/08 08:36:14;;;;;;;5.90;1.20;;;20.00;78.60;;;;;;4934320;29;20779;-70
2022/12/08 08:38:43;;;;;;;4.57;0.83;;;19.90;82.10;;;;;;4934385;29;20196;-70
2022/12/08 08:41:10;;;;;;;3.47;0.93;;;19.70;82.40;;;;;;4934614;29;20200;-71
2022/12/08 08:43:39;;;;;;;7.30;1.30;;;19.70;85.30;;;;;;4933902;29;20183;-71
2022/12/08 08:46:07;;;;;;;6.60;1.27;;;19.60;86.30;;;;;;4934279;29;20185;-70
2022/12/08 08:48:35;;;;;;;3.07;0.90;;;19.40;88.80;;;;;;4933752;29;20235;-70
2022/12/08 08:51:13;;;;;;;6.97;1.33;;;19.40;89.30;;;;;;4934286;29;20190;-71
2022/12/08 08:53:40;;;;;;;7.53;1.13;;;19.40;90.60;;;;;;4934407;29;20173;-70
2022/12/08 08:56:13;;;;;;;4.60;1.30;;;19.30;91.30;;;;;;4934400;29;20216;-71
2022/12/08 08:58:41;;;;;;;5.63;0.93;;;19.10;93.30;;;;;;4933303;29;20272;-70
2022/12/08 09:01:08;;;;;;;3.60;0.90;;;19.10;94.00;;;;;;4933961;29;20228;-70
2022/12/08 09:03:36;;;;;;;3.60;1.03;;;19.00;94.30;;;;;;4933897;29;20213;-71
2022/12/08 09:06:03;;;;;;;5.33;1.60;;;18.90;94.50;;;;;;4933465;29;20655;-72
2022/12/08 09:08:31;;;;;;;4.23;1.10;;;18.90;95.30;;;;;;4934262;29;20785;-72
2022/12/08 09:10:58;;;;;;;7.47;1.60;;;18.90;95.10;;;;;;4933220;29;20177;-71
2022/12/08 09:13:25;;;;;;;3.23;1.07;;;18.80;95.00;;;;;;4932346;29;20188;-69
2022/12/08 09:15:53;;;;;;;3.83;1.30;;;18.80;95.50;;;;;;4933886;29;20216;-72
2022/12/08 09:18:20;;;;;;;7.00;1.00;;;18.80;96.40;;;;;;4916805;29;20262;-72
2022/12/08 09:20:48;;;;;;;6.17;1.10;;;18.80;97.30;;;;;;4933653;29;20189;-71
2022/12/08 09:23:15;;;;;;;7.83;1.27;;;18.80;98.00;;;;;;4933630;29;20177;-72
2022/12/08 09:25:44;;;;;;;9.77;1.37;;;18.80;99.90;;;;;;4934109;29;20200;-72
2022/12/08 09:28:13;;;;;;;5.67;1.10;;;18.80;99.90;;;;;;4936763;29;20188;-70
2022/12/08 09:30:41;;;;;;;9.80;1.50;;;18.80;99.90;;;;;;4937692;29;20180;-70
2022/12/08 09:33:08;;;;;;;3.60;1.00;;;18.70;99.90;;;;;;4936305;29;20678;-70
2022/12/08 09:35:36;;;;;;;4.07;1.40;;;18.80;99.90;;;;;;4936770;29;20225;-70
2022/12/08 09:38:04;;;;;;;10.20;1.40;;;18.90;99.90;;;;;;4920081;29;20688;-70
2022/12/08 09:40:36;;;;;;;6.80;1.20;;;18.90;99.90;;;;;;4937418;29;20184;-71
2022/12/08 09:43:18;;;;;;;3.13;1.33;;;18.90;99.90;;;;;;4936787;29;20736;-71
2022/12/08 09:45:47;;;;;;;3.73;1.03;;;18.90;99.90;;;;;;4937376;29;20188;-71
2022/12/08 09:48:24;;;;;;;7.37;1.73;;;18.90;99.90;;;;;;4936528;29;20205;-71
2022/12/08 09:50:55;;;;;;;8.57;1.40;;;19.00;99.90;;;;;;4936258;29;20184;-71
2022/12/08 09:53:31;;;;;;;9.93;1.60;;;19.00;99.90;;;;;;4937031;29;20585;-71
2022/12/08 09:56:25;;;;;;;5.63;1.33;;;19.10;99.90;;;;;;4936368;29;20216;-71
2022/12/08 09:58:52;;;;;;;8.30;1.30;;;19.00;99.90;;;;;;4931877;29;20297;-71
2022/12/08 10:01:22;;;;;;;4.80;1.37;;;19.10;99.90;;;;;;4936588;29;20200;-72
2022/12/08 10:03:53;;;;;;;8.30;1.23;;;19.10;99.90;;;;;;4937043;29;20178;-72
2022/12/08 10:06:45;;;;;;;5.10;1.20;;;19.10;99.90;;;;;;4936472;29;20222;-71
2022/12/08 10:09:41;;;;;;;10.20;1.63;;;19.10;99.90;;;;;;4936922;29;20205;-72
2022/12/08 10:12:27;;;;;;;10.27;1.23;;;19.10;99.90;;;;;;4936439;29;20220;-71
2022/12/08 10:15:00;;;;;;;8.40;1.27;;;19.00;99.90;;;;;;4937021;29;20223;-71
2022/12/08 10:17:36;;;;;;;5.37;1.43;;;19.00;99.90;;;;;;4936791;29;20177;-71
2022/12/08 10:20:18;;;;;;;5.43;1.30;;;18.90;99.90;;;;;;4935796;29;20193;-72
2022/12/08 10:22:50;;;;;;;4.17;1.30;;;19.00;99.90;;;;;;4936495;29;20223;-72
2022/12/08 10:25:27;;;;;;;5.37;1.60;;;19.00;99.90;;;;;;4936105;29;20189;-71
2022/12/08 10:27:55;;;;;;;7.57;1.10;;;19.10;99.90;;;;;;4936202;29;20549;-71
2022/12/08 10:30:23;;;;;;;6.93;1.20;;;19.00;99.90;;;;;;4936214;29;20181;-72
2022/12/08 10:32:53;;;;;;;7.23;1.20;;;19.00;99.90;;;;;;4936628;29;20181;-71
2022/12/08 10:35:24;;;;;;;6.87;1.40;;;19.00;99.90;;;;;;4935537;29;20215;-71
2022/12/08 10:38:05;;;;;;;9.93;1.40;;;19.00;99.90;;;;;;4935580;29;20176;-71
2022/12/08 10:40:37;;;;;;;5.83;1.50;;;18.90;99.90;;;;;;4936456;29;20302;-71
2022/12/08 10:43:05;;;;;;;9.00;1.67;;;18.90;99.90;;;;;;4935967;29;20189;-71
2022/12/08 10:45:40;;;;;;;8.43;1.43;;;18.90;99.90;;;;;;4935693;29;20201;-72
2022/12/08 10:48:16;;;;;;;3.50;1.10;;;18.90;99.90;;;;;;4935307;29;20193;-72
2022/12/08 10:50:48;;;;;;;11.90;1.57;;;18.90;99.90;;;;;;4935387;29;20200;-70
2022/12/08 10:53:29;;;;;;;9.73;1.90;;;18.90;99.90;;;;;;4936139;29;20749;-71
2022/12/08 10:56:02;;;;;;;7.07;1.73;;;18.90;99.90;;;;;;4918993;29;20222;-71
2022/12/08 10:58:39;;;;;;;10.17;1.40;;;18.80;99.90;;;;;;4935740;29;20625;-71
2022/12/08 11:01:14;;;;;;;13.83;1.80;;;18.90;99.90;;;;;;4921362;29;20275;-70
2022/12/08 11:04:00;;;;;;;9.87;1.30;;;18.90;99.90;;;;;;4936120;29;20191;-71
2022/12/08 11:06:37;;;;;;;10.93;1.50;;;18.80;99.90;;;;;;4935441;29;20177;-70
2022/12/08 11:09:16;;;;;;;5.70;1.90;;;18.70;99.90;;;;;;4935637;29;20666;-70
2022/12/08 11:11:53;;;;;;;11.97;1.50;;;18.60;99.90;;;;;;4935424;29;20211;-69
2022/12/08 11:14:28;;;;;;;5.77;1.33;;;18.60;99.90;;;;;;4934931;29;20188;-69
2022/12/08 11:17:07;;;;;;;6.73;1.90;;;18.60;99.90;;;;;;4918748;29;20187;-68
2022/12/08 11:19:43;;;;;;;6.13;1.30;;;18.60;99.90;;;;;;4935000;29;20216;-71
2022/12/08 11:22:29;;;;;;;11.57;2.03;;;18.60;99.90;;;;;;4935292;29;20193;-70
2022/12/08 11:25:02;;;;;;;11.37;1.70;;;18.60;99.90;;;;;;4935570;29;20213;-71
2022/12/08 11:27:30;;;;;;;6.37;1.40;;;18.60;99.90;;;;;;4934846;29;20183;-71
2022/12/08 11:29:58;;;;;;;9.67;1.70;;;18.60;99.90;;;;;;4935593;29;20191;-70
2022/12/08 11:32:25;;;;;;;5.80;1.50;;;18.60;99.90;;;;;;4935567;29;20182;-70
2022/12/08 11:34:55;;;;;;;6.63;1.43;;;18.60;99.90;;;;;;4935049;29;20295;-71
2022/12/08 11:37:43;;;;;;;6.40;1.43;;;18.60;99.90;;;;;;4935247;29;20541;-71
2022/12/08 11:40:24;;;;;;;11.20;1.50;;;18.60;99.90;;;;;;4935465;29;20232;-71
2022/12/08 11:43:01;;;;;;;12.20;1.73;;;18.60;99.90;;;;;;4934919;29;20184;-70
2022/12/08 11:45:34;;;;;;;8.30;1.33;;;18.50;99.90;;;;;;4935229;29;20192;-69
2022/12/08 11:48:17;;;;;;;6.67;1.40;;;18.40;99.90;;;;;;4934999;29;20550;-71
2022/12/08 11:51:00;;;;;;;8.70;1.50;;;18.30;99.90;;;;;;4934706;29;20548;-71
2022/12/08 11:54:00;;;;;;;10.30;2.23;;;18.30;99.90;;;;;;4934487;29;20185;-72
2022/12/08 11:56:52;;;;;;;10.50;2.10;;;18.30;99.90;;;;;;4934485;29;20216;-69
2022/12/08 11:59:41;;;;;;;5.83;1.57;;;18.30;99.90;;;;;;4924784;29;20247;-70
2022/12/08 12:02:24;;;;;;;8.10;1.60;;;18.20;99.90;;;;;;4934672;29;20212;-69
2022/12/08 12:04:54;;;;;;;6.47;1.60;;;18.20;99.90;;;;;;4938615;29;20199;-70
2022/12/08 12:07:59;;;;;;;6.10;1.30;;;18.20;99.90;;;;;;4917805;29;20240;-68
2022/12/08 12:10:39;;;;;;;6.70;1.57;;;18.10;99.90;;;;;;4935543;29;20185;-68
2022/12/08 12:13:24;;;;;;;6.60;1.23;;;18.00;99.90;;;;;;4935961;29;20189;-69
2022/12/08 12:16:22;;;;;;;5.03;1.40;;;17.90;99.90;;;;;;4935920;29;20738;-70
2022/12/08 12:19:00;;;;;;;5.93;1.97;;;17.80;99.90;;;;;;4917447;29;20572;-70
2022/12/08 12:21:28;;;;;;;4.57;1.60;;;17.70;99.90;;;;;;4923099;29;20184;-71
2022/12/08 12:23:59;;;;;;;5.17;1.70;;;17.60;99.90;;;;;;4935549;29;20186;-70
2022/12/08 12:26:31;;;;;;;7.80;1.60;;;17.50;99.90;;;;;;4935877;29;20187;-70
2022/12/08 12:29:04;;;;;;;4.37;1.50;;;17.50;99.90;;;;;;4935882;29;20279;-71
2022/12/08 12:31:42;;;;;;;3.50;1.20;;;17.40;99.90;;;;;;4935690;29;20193;-70
2022/12/08 12:34:21;;;;;;;4.23;1.40;;;17.50;99.90;;;;;;4935706;29;20192;-71
2022/12/08 12:36:54;;;;;;;6.93;1.40;;;17.40;99.90;;;;;;4936252;29;20184;-71
2022/12/08 12:39:26;;;;;;;9.87;1.87;;;17.40;99.90;;;;;;4936055;29;20174;-70
2022/12/08 12:41:59;;;;;;;6.93;1.40;;;17.40;99.90;;;;;;4935605;29;20185;-69
2022/12/08 12:44:33;;;;;;;4.90;1.37;;;17.40;99.90;;;;;;4935455;29;20655;-69
2022/12/08 12:47:03;;;;;;;6.30;1.70;;;17.50;99.90;;;;;;4935868;29;20380;-69
2022/12/08 12:49:39;;;;;;;6.47;1.30;;;17.70;99.90;;;;;;4935358;29;20301;-68
2022/12/08 12:52:18;;;;;;;6.40;1.83;;;17.80;99.90;;;;;;4933599;29;20553;-70
2022/12/08 12:55:11;;;;;;;7.43;1.63;;;17.80;99.90;;;;;;4934149;29;20207;-70
2022/12/08 12:57:51;;;;;;;5.63;1.43;;;17.70;99.90;;;;;;4935676;29;20182;-69
2022/12/08 13:00:21;;;;;;;5.40;1.40;;;17.70;99.90;;;;;;4936918;29;20176;-71
2022/12/08 13:02:50;;;;;;;12.47;1.53;;;17.70;99.90;;;;;;4939023;29;20181;-69
2022/12/08 13:05:23;;;;;;;6.00;1.30;;;17.70;99.90;;;;;;4939188;29;20191;-69
2022/12/08 13:07:58;;;;;;;9.87;1.90;;;17.60;99.90;;;;;;4938964;29;20677;-70
2022/12/08 13:10:40;;;;;;;5.40;1.60;;;17.60;99.90;;;;;;4939382;29;20235;-69
2022/12/08 13:13:15;;;;;;;12.77;2.40;;;17.50;99.90;;;;;;4938785;29;20265;-69
2022/12/08 13:16:12;;;;;;;6.87;1.37;;;17.50;99.90;;;;;;4938968;29;20228;-69
2022/12/08 13:18:46;;;;;;;7.83;1.60;;;17.40;99.90;;;;;;4938933;29;20220;-71